Time;durP1;ratioP1;P1;durP2;ratioP2;P2;SDS_P1;SDS_P2;PMS_P1;PMS_P2;Temp;Humidity;BMP_temperature;BMP_pressure;BME280_temperature;BME280_humidity;BME280_pressure;Samples;Min_cycle;Max_cycle;Signal;HPM_P1;HPM_P2
2021/11/11 00:01:44;;;;;;;23.30;16.00;;;;;;;;;;5089448;28;20024;-68
2021/11/11 00:04:11;;;;;;;20.83;15.10;;;;;;;;;;5094887;28;20016;-69
2021/11/11 00:06:36;;;;;;;21.77;15.70;;;;;;;;;;5093982;28;20483;-68
2021/11/11 00:09:03;;;;;;;18.47;14.27;;;;;;;;;;5094740;28;20048;-68
2021/11/11 00:11:28;;;;;;;22.47;15.50;;;;;;;;;;5094866;28;20430;-68
2021/11/11 00:13:53;;;;;;;23.97;15.90;;;;;;;;;;5093981;28;20019;-68
2021/11/11 00:16:19;;;;;;;20.53;14.80;;;;;;;;;;5094817;28;20051;-68
2021/11/11 00:18:44;;;;;;;26.03;16.37;;;;;;;;;;5094409;28;20035;-68
2021/11/11 00:21:10;;;;;;;23.70;15.30;;;;;;;;;;5097225;28;20051;-68
2021/11/11 00:23:35;;;;;;;24.93;16.47;;;;;;;;;;5074156;28;20032;-68
2021/11/11 00:26:00;;;;;;;23.30;15.97;;;;;;;;;;5076829;28;20035;-69
2021/11/11 00:28:25;;;;;;;21.50;15.57;;;;;;;;;;5083957;28;20090;-68
2021/11/11 00:30:50;;;;;;;22.50;15.30;;;;;;;;;;5085801;28;20396;-68
2021/11/11 00:33:16;;;;;;;22.63;14.97;;;;;;;;;;5084525;28;20051;-68
2021/11/11 00:35:41;;;;;;;19.10;14.13;;;;;;;;;;5074395;28;20039;-68
2021/11/11 00:38:06;;;;;;;20.37;13.07;;;;;;;;;;5088643;28;20043;-68
2021/11/11 00:40:32;;;;;;;18.33;12.70;;;;;;;;;;5076068;28;20016;-68
2021/11/11 00:42:57;;;;;;;17.93;11.83;;;;;;;;;;5099698;28;20028;-68
2021/11/11 00:45:23;;;;;;;19.57;12.63;;;;;;;;;;5073849;28;20028;-68
2021/11/11 00:47:49;;;;;;;16.88;13.23;;;;;;;;;;5083164;28;20024;-68
2021/11/11 00:50:15;;;;;;;22.17;14.70;;;;;;;;;;5093714;28;20024;-68
2021/11/11 00:52:40;;;;;;;20.20;13.47;;;;;;;;;;5078298;28;20484;-68
2021/11/11 00:55:05;;;;;;;20.40;14.10;;;;;;;;;;5094870;28;20015;-68
2021/11/11 00:57:31;;;;;;;18.30;13.27;;;;;;;;;;5100944;28;20039;-68
2021/11/11 00:59:56;;;;;;;18.70;12.73;;;;;;;;;;5095047;28;20026;-69
2021/11/11 01:02:22;;;;;;;19.93;12.83;;;;;;;;;;5072608;28;20123;-68
2021/11/11 01:04:47;;;;;;;19.23;12.77;;;;;;;;;;5082336;28;20438;-68
2021/11/11 01:07:12;;;;;;;17.80;12.63;;;;;;;;;;5091577;28;20028;-68
2021/11/11 01:09:38;;;;;;;18.33;12.67;;;;;;;;;;5088887;28;20039;-68
2021/11/11 01:12:04;;;;;;;19.93;13.40;;;;;;;;;;5093864;28;20028;-68
2021/11/11 01:14:29;;;;;;;19.27;13.30;;;;;;;;;;5092606;28;20025;-68
2021/11/11 01:16:56;;;;;;;17.40;12.50;;;;;;;;;;5093593;28;20468;-69
2021/11/11 01:19:21;;;;;;;18.27;12.27;;;;;;;;;;5093080;28;20019;-69
2021/11/11 01:21:46;;;;;;;21.57;13.47;;;;;;;;;;5085643;28;20476;-68
2021/11/11 01:24:11;;;;;;;22.10;13.10;;;;;;;;;;5086407;28;20035;-68
2021/11/11 01:26:37;;;;;;;20.03;13.53;;;;;;;;;;5083701;28;20834;-69
2021/11/11 01:29:03;;;;;;;19.10;13.77;;;;;;;;;;5075889;28;20543;-68
2021/11/11 01:31:31;;;;;;;20.67;13.23;;;;;;;;;;5087825;28;20028;-68
2021/11/11 01:33:56;;;;;;;20.60;13.43;;;;;;;;;;5093083;28;20120;-69
2021/11/11 01:36:22;;;;;;;22.60;14.77;;;;;;;;;;5093327;28;20103;-68
2021/11/11 01:38:47;;;;;;;18.83;13.93;;;;;;;;;;5088748;28;20464;-68
2021/11/11 01:41:12;;;;;;;21.60;13.80;;;;;;;;;;5092476;28;20384;-68
2021/11/11 01:43:37;;;;;;;19.83;14.80;;;;;;;;;;5093069;28;20036;-69
2021/11/11 01:46:03;;;;;;;22.17;14.87;;;;;;;;;;5091822;28;20016;-68
2021/11/11 01:48:28;;;;;;;21.60;15.03;;;;;;;;;;5092044;28;20036;-68
2021/11/11 01:50:54;;;;;;;21.47;15.80;;;;;;;;;;5104236;28;20379;-69
2021/11/11 01:53:19;;;;;;;21.77;15.27;;;;;;;;;;5086040;28;20089;-68
2021/11/11 01:55:45;;;;;;;20.43;15.67;;;;;;;;;;5099616;28;20431;-68
2021/11/11 01:58:11;;;;;;;20.73;14.70;;;;;;;;;;5084367;28;20035;-68
2021/11/11 02:00:38;;;;;;;22.80;13.77;;;;;;;;;;5096570;28;20403;-68
2021/11/11 02:03:04;;;;;;;20.77;14.17;;;;;;;;;;5091783;28;20024;-68
2021/11/11 02:05:30;;;;;;;18.97;13.53;;;;;;;;;;5092447;28;20035;-68
2021/11/11 02:07:55;;;;;;;17.87;13.30;;;;;;;;;;5092404;28;20028;-68
2021/11/11 02:10:21;;;;;;;20.00;14.07;;;;;;;;;;5103870;28;20387;-68
2021/11/11 02:12:48;;;;;;;16.77;11.77;;;;;;;;;;5110949;27;20035;-69
2021/11/11 02:15:14;;;;;;;15.30;11.17;;;;;;;;;;5092599;28;20471;-69
2021/11/11 02:17:40;;;;;;;13.97;10.33;;;;;;;;;;5095861;28;20108;-68
2021/11/11 02:20:13;;;;;;;18.63;11.40;;;;;;;;;;5091724;28;20146;-68
2021/11/11 02:22:39;;;;;;;17.97;11.63;;;;;;;;;;5080712;28;20108;-68
2021/11/11 02:25:08;;;;;;;16.90;12.20;;;;;;;;;;5089896;28;20069;-68
2021/11/11 02:27:34;;;;;;;16.60;12.50;;;;;;;;;;5090145;28;20077;-68
2021/11/11 02:29:59;;;;;;;18.73;12.90;;;;;;;;;;5090333;28;20127;-68
2021/11/11 02:32:28;;;;;;;20.00;13.03;;;;;;;;;;5092619;28;20034;-68
2021/11/11 02:34:54;;;;;;;20.27;14.07;;;;;;;;;;5090007;28;20028;-68
2021/11/11 02:37:19;;;;;;;18.30;12.20;;;;;;;;;;5095665;28;20528;-68
2021/11/11 02:39:44;;;;;;;18.30;13.47;;;;;;;;;;5095467;28;20483;-68
2021/11/11 02:42:10;;;;;;;21.73;14.17;;;;;;;;;;5092146;28;20334;-68
2021/11/11 02:44:39;;;;;;;25.87;16.50;;;;;;;;;;5090592;28;20036;-68
2021/11/11 02:47:04;;;;;;;25.80;17.33;;;;;;;;;;5091221;28;20476;-68
2021/11/11 02:49:31;;;;;;;27.67;18.13;;;;;;;;;;5089981;28;20062;-68
2021/11/11 02:51:57;;;;;;;27.00;16.70;;;;;;;;;;5086486;28;20020;-68
2021/11/11 02:54:22;;;;;;;25.03;15.73;;;;;;;;;;5087936;28;20126;-69
2021/11/11 02:56:47;;;;;;;26.37;17.27;;;;;;;;;;5082350;28;20135;-68
2021/11/11 02:59:12;;;;;;;26.80;16.97;;;;;;;;;;5090604;28;20368;-69
2021/11/11 03:01:37;;;;;;;26.80;16.83;;;;;;;;;;5090244;28;20052;-69
2021/11/11 03:04:03;;;;;;;24.00;15.23;;;;;;;;;;5089558;28;20026;-69
2021/11/11 03:06:28;;;;;;;22.13;14.17;;;;;;;;;;5091761;28;20076;-69
2021/11/11 03:08:53;;;;;;;19.87;12.73;;;;;;;;;;5089808;28;20031;-69
2021/11/11 03:11:22;;;;;;;18.97;14.30;;;;;;;;;;5095701;28;20100;-69
2021/11/11 03:13:47;;;;;;;17.77;12.53;;;;;;;;;;5095980;28;20074;-69
2021/11/11 03:16:13;;;;;;;17.67;12.53;;;;;;;;;;5096210;28;20051;-69
2021/11/11 03:18:38;;;;;;;20.50;12.97;;;;;;;;;;5094194;28;20032;-68
2021/11/11 03:21:03;;;;;;;19.30;13.27;;;;;;;;;;5093711;28;20109;-69
2021/11/11 03:23:28;;;;;;;19.57;12.63;;;;;;;;;;5087741;28;20491;-69
2021/11/11 03:25:54;;;;;;;17.10;13.77;;;;;;;;;;5093315;28;20181;-68
2021/11/11 03:28:19;;;;;;;18.00;12.93;;;;;;;;;;5094203;28;20083;-69
2021/11/11 03:30:44;;;;;;;17.80;12.10;;;;;;;;;;5095335;28;20032;-69
2021/11/11 03:33:10;;;;;;;15.83;12.07;;;;;;;;;;5094015;28;20034;-68
2021/11/11 03:35:35;;;;;;;24.23;13.70;;;;;;;;;;5095805;28;20428;-68
2021/11/11 03:38:02;;;;;;;18.57;12.40;;;;;;;;;;5093576;28;20024;-68
2021/11/11 03:40:29;;;;;;;20.83;14.07;;;;;;;;;;5092882;28;20472;-68
2021/11/11 03:42:56;;;;;;;17.00;11.67;;;;;;;;;;5096418;28;20034;-68
2021/11/11 03:45:22;;;;;;;19.20;12.20;;;;;;;;;;5095325;28;20054;-68
2021/11/11 03:47:48;;;;;;;17.53;11.40;;;;;;;;;;5093672;28;20498;-68
2021/11/11 03:50:14;;;;;;;18.40;11.10;;;;;;;;;;5094987;28;20056;-68
2021/11/11 03:52:39;;;;;;;17.33;11.60;;;;;;;;;;5080153;28;20016;-68
2021/11/11 03:55:06;;;;;;;19.80;13.07;;;;;;;;;;5089853;28;20085;-68
2021/11/11 03:57:31;;;;;;;19.27;11.73;;;;;;;;;;5082112;28;20021;-68
2021/11/11 03:59:56;;;;;;;20.03;12.80;;;;;;;;;;5091238;28;20028;-68
2021/11/11 04:02:23;;;;;;;17.43;11.27;;;;;;;;;;5093830;28;20528;-68
2021/11/11 04:04:49;;;;;;;17.83;12.40;;;;;;;;;;5091975;28;20032;-68
2021/11/11 04:07:14;;;;;;;18.27;12.70;;;;;;;;;;5094637;28;20031;-69
2021/11/11 04:09:39;;;;;;;16.07;10.43;;;;;;;;;;5093204;28;20527;-67
2021/11/11 04:12:05;;;;;;;14.20;10.87;;;;;;;;;;5095248;28;20468;-67
2021/11/11 04:14:31;;;;;;;20.17;13.53;;;;;;;;;;5094806;28;20028;-68
2021/11/11 04:17:00;;;;;;;17.90;12.63;;;;;;;;;;5098510;28;20053;-68
2021/11/11 04:19:25;;;;;;;19.67;12.73;;;;;;;;;;5094219;28;20016;-68
2021/11/11 04:21:51;;;;;;;17.63;12.37;;;;;;;;;;5086972;28;20430;-69
2021/11/11 04:24:16;;;;;;;19.73;13.23;;;;;;;;;;5088622;28;20024;-68
2021/11/11 04:26:53;;;;;;;19.47;13.83;;;;;;;;;;5094416;28;20523;-69
2021/11/11 04:29:25;;;;;;;21.43;12.17;;;;;;;;;;5093247;28;20476;-69
2021/11/11 04:32:04;;;;;;;20.37;13.30;;;;;;;;;;5082703;28;20047;-69
2021/11/11 04:34:31;;;;;;;18.37;11.43;;;;;;;;;;5093456;28;20028;-69
2021/11/11 04:42:20;;;;;;;14.70;10.75;;;;;;;;;;5096415;28;20035;-68
2021/11/11 04:52:46;;;;;;;16.63;11.17;;;;;;;;;;5084238;28;20447;-68
2021/11/11 05:05:49;;;;;;;17.13;10.70;;;;;;;;;;5096294;28;20062;-69
2021/11/11 05:08:14;;;;;;;13.53;10.13;;;;;;;;;;5090679;28;20047;-68
2021/11/11 05:10:40;;;;;;;13.07;9.57;;;;;;;;;;5093383;28;20028;-68
2021/11/11 05:13:05;;;;;;;13.37;9.23;;;;;;;;;;5091985;28;20023;-68
2021/11/11 05:15:31;;;;;;;13.90;9.20;;;;;;;;;;5098926;28;20023;-68
2021/11/11 05:17:56;;;;;;;13.63;8.70;;;;;;;;;;5100662;28;20396;-68
2021/11/11 05:20:21;;;;;;;14.90;10.23;;;;;;;;;;5069834;28;20036;-68
2021/11/11 05:22:47;;;;;;;17.03;11.07;;;;;;;;;;5081863;28;20020;-68
2021/11/11 05:25:14;;;;;;;18.07;11.30;;;;;;;;;;5094004;28;20059;-68
2021/11/11 05:27:40;;;;;;;14.87;10.10;;;;;;;;;;5083942;28;20401;-68
2021/11/11 05:30:06;;;;;;;13.73;9.60;;;;;;;;;;5091304;28;20020;-68
2021/11/11 05:32:33;;;;;;;13.83;9.80;;;;;;;;;;5090714;28;20453;-69
2021/11/11 05:34:58;;;;;;;17.03;10.07;;;;;;;;;;5092890;28;20461;-68
2021/11/11 05:37:23;;;;;;;14.80;9.67;;;;;;;;;;5093084;28;20028;-68
2021/11/11 05:39:48;;;;;;;12.93;8.93;;;;;;;;;;5091503;28;20078;-69
2021/11/11 05:42:13;;;;;;;16.83;9.67;;;;;;;;;;5086256;28;20028;-69
2021/11/11 05:44:39;;;;;;;16.40;10.03;;;;;;;;;;5096599;28;20032;-68
2021/11/11 05:47:04;;;;;;;15.37;10.60;;;;;;;;;;5078025;28;20025;-69
2021/11/11 05:49:29;;;;;;;18.53;12.17;;;;;;;;;;5080708;28;20119;-69
2021/11/11 05:51:55;;;;;;;18.23;11.87;;;;;;;;;;5079933;28;20031;-69
2021/11/11 05:54:20;;;;;;;20.37;13.30;;;;;;;;;;5072623;28;20013;-69
2021/11/11 05:56:45;;;;;;;22.57;13.70;;;;;;;;;;5088738;28;20024;-69
2021/11/11 05:59:10;;;;;;;18.17;12.70;;;;;;;;;;5076230;28;20020;-68
2021/11/11 06:01:36;;;;;;;23.50;14.87;;;;;;;;;;5078610;28;20043;-68
2021/11/11 06:04:02;;;;;;;20.60;14.80;;;;;;;;;;5092343;28;20026;-69
2021/11/11 06:06:27;;;;;;;20.60;13.17;;;;;;;;;;5079986;28;20166;-69
2021/11/11 06:08:52;;;;;;;15.50;11.63;;;;;;;;;;5090397;28;20343;-69
2021/11/11 06:11:17;;;;;;;20.87;14.00;;;;;;;;;;5074818;28;20066;-69
2021/11/11 06:13:43;;;;;;;18.17;11.97;;;;;;;;;;5070959;28;20027;-69
2021/11/11 06:16:08;;;;;;;13.10;9.27;;;;;;;;;;5088762;28;20038;-68
2021/11/11 06:18:34;;;;;;;13.67;9.63;;;;;;;;;;5083880;28;20027;-67
2021/11/11 06:21:02;;;;;;;14.20;9.70;;;;;;;;;;5071591;28;20016;-67
2021/11/11 06:23:28;;;;;;;17.67;10.23;;;;;;;;;;5082420;28;20023;-70
2021/11/11 06:25:54;;;;;;;19.93;13.43;;;;;;;;;;5080228;28;20099;-70
2021/11/11 06:28:19;;;;;;;17.70;13.77;;;;;;;;;;5081263;28;20123;-69
2021/11/11 06:30:44;;;;;;;17.83;12.53;;;;;;;;;;5085924;28;20024;-69
2021/11/11 06:33:09;;;;;;;17.80;11.00;;;;;;;;;;5077200;28;20024;-69
2021/11/11 06:35:35;;;;;;;17.00;13.10;;;;;;;;;;5092172;28;20416;-70
2021/11/11 06:38:00;;;;;;;16.20;11.73;;;;;;;;;;5091946;28;20039;-70
2021/11/11 06:40:27;;;;;;;20.50;12.10;;;;;;;;;;5083988;28;20085;-70
2021/11/11 06:42:52;;;;;;;19.20;12.53;;;;;;;;;;5088388;28;20475;-70
2021/11/11 06:45:19;;;;;;;17.07;11.57;;;;;;;;;;5104262;28;20035;-70
2021/11/11 06:47:44;;;;;;;18.03;12.00;;;;;;;;;;5091878;28;20024;-70
2021/11/11 06:50:11;;;;;;;18.40;11.53;;;;;;;;;;5087099;28;20161;-71
2021/11/11 06:52:36;;;;;;;18.67;13.33;;;;;;;;;;5071974;28;20036;-71
2021/11/11 06:55:02;;;;;;;16.13;11.10;;;;;;;;;;5063727;28;20476;-70
2021/11/11 06:57:28;;;;;;;16.03;10.63;;;;;;;;;;5071268;28;20028;-70
2021/11/11 06:59:53;;;;;;;20.13;11.27;;;;;;;;;;5088656;28;20028;-69
2021/11/11 07:02:18;;;;;;;18.80;11.87;;;;;;;;;;5089922;28;20070;-71
2021/11/11 07:04:45;;;;;;;17.10;12.37;;;;;;;;;;5084510;28;20062;-70
2021/11/11 07:07:10;;;;;;;21.27;14.57;;;;;;;;;;5062259;28;20028;-70
2021/11/11 07:09:35;;;;;;;18.97;13.00;;;;;;;;;;5080798;28;20035;-70
2021/11/11 07:12:01;;;;;;;17.73;12.50;;;;;;;;;;5079542;28;20020;-70
2021/11/11 07:14:26;;;;;;;21.87;14.27;;;;;;;;;;5090891;28;20020;-70
2021/11/11 07:16:52;;;;;;;20.37;13.40;;;;;;;;;;5074452;28;20448;-70
2021/11/11 07:19:17;;;;;;;19.13;13.77;;;;;;;;;;5072275;28;20554;-70
2021/11/11 07:21:42;;;;;;;21.93;14.10;;;;;;;;;;5085386;28;20052;-70
2021/11/11 07:24:07;;;;;;;19.03;13.00;;;;;;;;;;5086008;28;20020;-70
2021/11/11 07:26:33;;;;;;;24.87;14.40;;;;;;;;;;5079405;28;20033;-70
2021/11/11 07:28:58;;;;;;;22.93;14.00;;;;;;;;;;5071619;28;20028;-70
2021/11/11 07:31:25;;;;;;;19.87;12.77;;;;;;;;;;5080250;28;20036;-70
2021/11/11 07:33:51;;;;;;;20.03;13.27;;;;;;;;;;5088364;28;20089;-70
2021/11/11 07:36:16;;;;;;;19.17;14.13;;;;;;;;;;5076716;28;20020;-71
2021/11/11 07:38:41;;;;;;;18.47;12.97;;;;;;;;;;5087816;28;20024;-70
2021/11/11 07:41:07;;;;;;;20.00;13.23;;;;;;;;;;5071203;28;20039;-70
2021/11/11 07:43:32;;;;;;;18.47;12.43;;;;;;;;;;5084603;28;20395;-70
2021/11/11 07:46:03;;;;;;;21.00;13.43;;;;;;;;;;5078487;28;20036;-70
2021/11/11 07:48:28;;;;;;;16.73;11.57;;;;;;;;;;5096654;28;20051;-70
2021/11/11 07:50:53;;;;;;;18.10;10.97;;;;;;;;;;5085320;28;20128;-71
2021/11/11 07:53:19;;;;;;;16.97;11.40;;;;;;;;;;5078073;28;20054;-70
2021/11/11 07:55:44;;;;;;;19.77;11.83;;;;;;;;;;5071681;28;20027;-71
2021/11/11 07:58:10;;;;;;;19.30;12.37;;;;;;;;;;5061538;28;20033;-71
2021/11/11 08:00:36;;;;;;;19.77;11.30;;;;;;;;;;5089218;28;20036;-71
2021/11/11 08:03:01;;;;;;;18.17;11.80;;;;;;;;;;5087450;28;20492;-70
2021/11/11 08:05:26;;;;;;;15.45;10.77;;;;;;;;;;5086150;28;20032;-70
2021/11/11 08:07:51;;;;;;;13.77;9.70;;;;;;;;;;5074293;28;20418;-70
2021/11/11 08:10:17;;;;;;;16.30;11.00;;;;;;;;;;5088923;28;20051;-70
2021/11/11 08:12:43;;;;;;;13.32;9.43;;;;;;;;;;5085485;28;20020;-70
2021/11/11 08:15:09;;;;;;;13.45;9.90;;;;;;;;;;5076739;28;20017;-70
2021/11/11 08:17:35;;;;;;;14.43;8.90;;;;;;;;;;5092480;28;20085;-70
2021/11/11 08:20:00;;;;;;;13.27;9.82;;;;;;;;;;5089314;28;20044;-70
2021/11/11 08:22:26;;;;;;;12.52;8.68;;;;;;;;;;5078827;28;20039;-70
2021/11/11 08:24:52;;;;;;;12.38;8.75;;;;;;;;;;5087109;28;20028;-70
2021/11/11 08:27:18;;;;;;;11.35;8.88;;;;;;;;;;5078863;28;20067;-70
2021/11/11 08:29:43;;;;;;;14.38;8.88;;;;;;;;;;5079227;28;20032;-71
2021/11/11 08:32:09;;;;;;;11.95;9.35;;;;;;;;;;5079807;28;20021;-71
2021/11/11 08:34:34;;;;;;;12.55;8.02;;;;;;;;;;5081816;28;20028;-71
2021/11/11 08:37:00;;;;;;;13.77;8.30;;;;;;;;;;5079640;28;20032;-71
2021/11/11 08:39:25;;;;;;;12.10;8.52;;;;;;;;;;5078255;28;20107;-72
2021/11/11 08:41:52;;;;;;;11.95;7.25;;;;;;;;;;5074413;28;20028;-71
2021/11/11 08:44:19;;;;;;;10.13;6.82;;;;;;;;;;5077753;28;20025;-72
2021/11/11 08:46:44;;;;;;;10.10;7.18;;;;;;;;;;5071129;28;20350;-72
2021/11/11 08:49:09;;;;;;;8.95;6.85;;;;;;;;;;5074776;28;20108;-70
2021/11/11 08:51:35;;;;;;;11.23;8.13;;;;;;;;;;5071443;28;20040;-70
2021/11/11 08:54:02;;;;;;;11.13;7.65;;;;;;;;;;5081816;28;20032;-71
2021/11/11 08:56:27;;;;;;;13.00;8.40;;;;;;;;;;5086469;28;20024;-72
2021/11/11 08:58:52;;;;;;;11.77;8.32;;;;;;;;;;5086671;28;20012;-71
2021/11/11 09:01:18;;;;;;;13.15;8.35;;;;;;;;;;5069054;28;20162;-71
2021/11/11 09:03:43;;;;;;;10.48;8.10;;;;;;;;;;5088124;28;20472;-71
2021/11/11 09:06:08;;;;;;;10.95;8.48;;;;;;;;;;5093486;28;20388;-71
2021/11/11 09:08:34;;;;;;;15.18;9.75;;;;;;;;;;5092246;28;20378;-71
2021/11/11 09:10:59;;;;;;;14.25;10.82;;;;;;;;;;5094261;28;20046;-71
2021/11/11 09:13:26;;;;;;;13.65;9.85;;;;;;;;;;5087922;28;20400;-71
2021/11/11 09:15:51;;;;;;;13.40;10.13;;;;;;;;;;5090944;28;20396;-71
2021/11/11 09:18:16;;;;;;;14.38;10.65;;;;;;;;;;5097642;28;20034;-71
2021/11/11 09:20:42;;;;;;;12.30;9.63;;;;;;;;;;5110112;28;20059;-71
2021/11/11 09:23:08;;;;;;;12.52;9.43;;;;;;;;;;5081662;28;20461;-71
2021/11/11 09:25:34;;;;;;;13.15;9.88;;;;;;;;;;5085248;28;20494;-71
2021/11/11 09:28:00;;;;;;;12.70;10.05;;;;;;;;;;5096173;28;20134;-71
2021/11/11 09:30:34;;;;;;;12.77;10.40;;;;;;;;;;5076167;28;20127;-71
2021/11/11 09:32:59;;;;;;;14.75;11.00;;;;;;;;;;5082251;28;20460;-72
2021/11/11 09:35:24;;;;;;;13.15;9.80;;;;;;;;;;5084021;28;20024;-71
2021/11/11 09:37:49;;;;;;;15.77;11.02;;;;;;;;;;5083409;28;20024;-72
2021/11/11 09:40:19;;;;;;;14.32;10.57;;;;;;;;;;5087640;28;20361;-72
2021/11/11 09:42:45;;;;;;;13.15;10.10;;;;;;;;;;5092037;28;20361;-72
2021/11/11 09:45:11;;;;;;;14.38;10.68;;;;;;;;;;5086450;28;20042;-71
2021/11/11 09:47:36;;;;;;;13.73;10.05;;;;;;;;;;5082179;28;20032;-72
2021/11/11 09:50:05;;;;;;;13.23;9.68;;;;;;;;;;5091192;28;20043;-72
2021/11/11 09:52:30;;;;;;;13.35;10.07;;;;;;;;;;5066100;28;20047;-72
2021/11/11 10:00:24;;;;;;;11.45;9.00;;;;;;;;;;5082314;28;20039;-72
2021/11/11 10:02:50;;;;;;;12.73;9.45;;;;;;;;;;5074110;28;20043;-72
2021/11/11 10:05:16;;;;;;;15.88;9.65;;;;;;;;;;5089761;28;20020;-71
2021/11/11 10:07:41;;;;;;;12.40;9.25;;;;;;;;;;5071494;28;20028;-72
2021/11/11 10:10:07;;;;;;;13.18;9.60;;;;;;;;;;5069775;28;20222;-71
2021/11/11 10:12:33;;;;;;;15.15;10.20;;;;;;;;;;5102053;28;20016;-72
2021/11/11 10:15:07;;;;;;;14.93;10.38;;;;;;;;;;5091035;28;20400;-72
2021/11/11 10:17:38;;;;;;;12.68;10.30;;;;;;;;;;5091474;28;20154;-72
2021/11/11 10:20:05;;;;;;;11.32;9.88;;;;;;;;;;5088985;28;20032;-72
2021/11/11 10:22:33;;;;;;;11.48;9.32;;;;;;;;;;5081976;28;20020;-71
2021/11/11 10:25:03;;;;;;;11.82;9.90;;;;;;;;;;5077595;28;20031;-70
2021/11/11 10:27:43;;;;;;;11.15;9.48;;;;;;;;;;5082585;28;20423;-72
2021/11/11 10:30:14;;;;;;;13.45;10.40;;;;;;;;;;5078563;28;20032;-72
2021/11/11 10:32:41;;;;;;;13.60;9.73;;;;;;;;;;5085451;28;20031;-72
2021/11/11 10:35:07;;;;;;;13.82;10.20;;;;;;;;;;5090671;28;20021;-73
2021/11/11 10:37:33;;;;;;;11.68;10.00;;;;;;;;;;5075544;28;20024;-72
2021/11/11 10:40:01;;;;;;;11.32;9.30;;;;;;;;;;5071423;28;20043;-72
2021/11/11 10:42:27;;;;;;;11.27;9.65;;;;;;;;;;5080584;28;20019;-72
2021/11/11 10:44:56;;;;;;;11.77;9.50;;;;;;;;;;5095443;28;20076;-72
2021/11/11 10:47:27;;;;;;;12.73;9.93;;;;;;;;;;5083624;28;20020;-72
2021/11/11 10:49:55;;;;;;;12.27;9.70;;;;;;;;;;5086056;28;20441;-72
2021/11/11 10:52:23;;;;;;;10.65;9.43;;;;;;;;;;5078445;28;20016;-71
2021/11/11 10:54:55;;;;;;;10.45;9.35;;;;;;;;;;5091014;28;20059;-72
2021/11/11 10:57:30;;;;;;;11.90;9.63;;;;;;;;;;5091374;28;20024;-72
2021/11/11 11:00:21;;;;;;;11.77;10.07;;;;;;;;;;5091550;28;20480;-72
2021/11/11 11:02:51;;;;;;;10.63;9.32;;;;;;;;;;5078506;28;20068;-72
2021/11/11 11:05:17;;;;;;;11.32;10.07;;;;;;;;;;5079521;28;20020;-72
2021/11/11 11:07:44;;;;;;;11.45;9.98;;;;;;;;;;5104395;28;20119;-72
2021/11/11 11:10:12;;;;;;;11.82;10.07;;;;;;;;;;5089109;28;20024;-73
2021/11/11 11:12:37;;;;;;;12.65;10.20;;;;;;;;;;5072725;28;20508;-72
2021/11/11 11:15:02;;;;;;;13.87;10.80;;;;;;;;;;5082445;28;20123;-73
2021/11/11 11:17:27;;;;;;;11.40;10.20;;;;;;;;;;5080459;28;20277;-72
2021/11/11 11:20:13;;;;;;;11.45;10.13;;;;;;;;;;5070610;28;20029;-72
2021/11/11 11:22:38;;;;;;;11.52;10.32;;;;;;;;;;5096575;28;20070;-72
2021/11/11 11:25:04;;;;;;;12.50;10.90;;;;;;;;;;5072049;28;20492;-72
2021/11/11 11:27:36;;;;;;;10.18;9.18;;;;;;;;;;5088603;28;20274;-71
2021/11/11 11:30:11;;;;;;;13.40;10.55;;;;;;;;;;5082294;28;20024;-71
2021/11/11 11:32:40;;;;;;;11.35;10.18;;;;;;;;;;5100392;28;20119;-71
2021/11/11 11:35:06;;;;;;;11.27;9.85;;;;;;;;;;5096860;28;20064;-72
2021/11/11 11:37:33;;;;;;;10.82;9.20;;;;;;;;;;5095695;28;20054;-72
2021/11/11 11:40:00;;;;;;;11.63;10.18;;;;;;;;;;5079654;28;20055;-72
2021/11/11 11:42:27;;;;;;;10.88;9.88;;;;;;;;;;5080956;28;20491;-72
2021/11/11 11:44:57;;;;;;;11.25;10.15;;;;;;;;;;5093172;28;20020;-71
2021/11/11 11:47:40;;;;;;;10.82;9.73;;;;;;;;;;5091813;28;20054;-72
2021/11/11 11:50:05;;;;;;;11.48;9.80;;;;;;;;;;5121192;27;20062;-71
2021/11/11 11:52:32;;;;;;;11.45;10.27;;;;;;;;;;5082183;28;20055;-72
2021/11/11 11:57:55;;;;;;;10.57;9.57;;;;;;;;;;5080524;28;20016;-71
2021/11/11 12:00:54;;;;;;;11.18;9.98;;;;;;;;;;5079509;28;20450;-72
2021/11/11 12:14:06;;;;;;;13.68;11.13;;;;;;;;;;5096083;28;20483;-71
2021/11/11 12:39:34;;;;;;;14.52;11.90;;;;;;;;;;5082768;28;20101;-72
2021/11/11 12:42:04;;;;;;;13.98;12.50;;;;;;;;;;5080172;28;20029;-72
2021/11/11 12:44:30;;;;;;;15.23;12.65;;;;;;;;;;5074547;28;20016;-71
2021/11/11 12:46:56;;;;;;;15.32;12.07;;;;;;;;;;5078279;28;20020;-71
2021/11/11 12:49:23;;;;;;;12.98;11.25;;;;;;;;;;5078099;28;20020;-72
2021/11/11 12:52:07;;;;;;;13.60;11.73;;;;;;;;;;5083975;28;20020;-70
2021/11/11 12:54:33;;;;;;;13.32;11.13;;;;;;;;;;5087314;28;20024;-72
2021/11/11 12:57:02;;;;;;;13.55;11.15;;;;;;;;;;5087162;28;20054;-71
2021/11/11 12:59:31;;;;;;;15.32;12.27;;;;;;;;;;5086384;28;20031;-71
2021/11/11 13:01:58;;;;;;;12.93;11.48;;;;;;;;;;5090882;28;20514;-72
2021/11/11 13:04:25;;;;;;;14.23;11.75;;;;;;;;;;5085315;28;20020;-71
2021/11/11 13:06:52;;;;;;;17.00;11.98;;;;;;;;;;5074317;28;20032;-71
2021/11/11 13:09:19;;;;;;;14.57;12.18;;;;;;;;;;5090282;28;20017;-71
2021/11/11 13:11:55;;;;;;;14.93;12.40;;;;;;;;;;5072037;28;20028;-72
2021/11/11 13:14:23;;;;;;;14.60;12.20;;;;;;;;;;5080928;28;20022;-72
2021/11/11 13:16:54;;;;;;;14.57;11.95;;;;;;;;;;5075366;28;20031;-72
2021/11/11 13:19:29;;;;;;;17.83;12.60;;;;;;;;;;5072901;28;20024;-71
2021/11/11 13:21:56;;;;;;;16.35;12.85;;;;;;;;;;5069366;28;20078;-72
2021/11/11 14:00:27;;;;;;;17.05;13.35;;;;;;;;;;5080521;28;20460;-71
2021/11/11 16:00:01;;;;;;;24.00;17.83;;;;;;;;;;5080273;28;20464;-71
2021/11/11 16:03:12;;;;;;;21.70;17.23;;;;;;;;;;5057886;28;20025;-71
2021/11/11 16:26:45;;;;;;;29.25;20.02;;;;;;;;;;5087734;28;20132;-71
2021/11/11 16:29:10;;;;;;;28.98;20.75;;;;;;;;;;5080633;28;20062;-71
2021/11/11 16:31:36;;;;;;;26.88;20.63;;;;;;;;;;5071662;28;20032;-71
2021/11/11 16:34:01;;;;;;;25.80;20.48;;;;;;;;;;5106441;28;20020;-71
2021/11/11 16:36:27;;;;;;;24.98;19.08;;;;;;;;;;5065466;28;20039;-72
2021/11/11 16:38:53;;;;;;;27.27;19.95;;;;;;;;;;5086008;28;20062;-71
2021/11/11 16:41:18;;;;;;;25.60;18.98;;;;;;;;;;5090133;28;20059;-72
2021/11/11 16:43:44;;;;;;;28.70;19.20;;;;;;;;;;5078808;28;20177;-71
2021/11/11 16:46:09;;;;;;;28.88;19.08;;;;;;;;;;5070140;28;20081;-71
2021/11/11 16:48:39;;;;;;;26.60;20.02;;;;;;;;;;5107012;27;20052;-72
2021/11/11 16:51:05;;;;;;;26.80;20.13;;;;;;;;;;5084954;28;20520;-71
2021/11/11 16:53:31;;;;;;;29.60;20.88;;;;;;;;;;5072914;28;20064;-71
2021/11/11 16:55:56;;;;;;;30.20;20.60;;;;;;;;;;5077606;28;20053;-71
2021/11/11 16:58:22;;;;;;;28.73;19.27;;;;;;;;;;5081657;28;20109;-70
2021/11/11 17:00:47;;;;;;;27.23;19.77;;;;;;;;;;5074601;28;20017;-71
2021/11/11 17:03:13;;;;;;;29.90;20.98;;;;;;;;;;5071448;28;20126;-70
2021/11/11 17:05:39;;;;;;;30.48;20.13;;;;;;;;;;5078947;28;20089;-71
2021/11/11 17:08:04;;;;;;;29.50;21.95;;;;;;;;;;5094551;28;20027;-71
2021/11/11 17:10:29;;;;;;;26.58;19.83;;;;;;;;;;5080287;28;20025;-71
2021/11/11 17:12:55;;;;;;;29.33;20.90;;;;;;;;;;5083602;28;20050;-71
2021/11/11 17:15:22;;;;;;;26.83;20.48;;;;;;;;;;5080145;28;20099;-70
2021/11/11 17:17:48;;;;;;;29.58;20.55;;;;;;;;;;5076717;28;20023;-71
2021/11/11 17:20:19;;;;;;;28.40;19.85;;;;;;;;;;5091646;28;20063;-71
2021/11/11 17:22:51;;;;;;;27.45;20.10;;;;;;;;;;5077560;28;20502;-71
2021/11/11 17:25:26;;;;;;;29.45;21.05;;;;;;;;;;5072714;28;20034;-72
2021/11/11 17:30:32;;;;;;;29.35;18.63;;;;;;;;;;5073042;28;20094;-70
2021/11/11 17:32:58;;;;;;;31.98;19.15;;;;;;;;;;5093109;28;20111;-71
2021/11/11 17:35:23;;;;;;;28.30;20.02;;;;;;;;;;5091216;28;20115;-72
2021/11/11 17:37:48;;;;;;;30.15;21.02;;;;;;;;;;5091377;28;20366;-71
2021/11/11 17:40:15;;;;;;;27.83;21.00;;;;;;;;;;5082321;28;20089;-71
2021/11/11 17:42:41;;;;;;;28.77;21.02;;;;;;;;;;5093099;28;20381;-71
2021/11/11 17:45:07;;;;;;;27.50;20.58;;;;;;;;;;5085688;28;20024;-70
2021/11/11 17:47:36;;;;;;;32.15;22.33;;;;;;;;;;5098446;28;20537;-71
2021/11/11 17:50:06;;;;;;;38.40;23.13;;;;;;;;;;5101815;28;20080;-71
2021/11/11 17:52:34;;;;;;;30.73;21.60;;;;;;;;;;5084917;28;20020;-70
2021/11/11 17:55:02;;;;;;;27.90;20.88;;;;;;;;;;5090966;28;20028;-70
2021/11/11 17:57:30;;;;;;;29.15;22.25;;;;;;;;;;5075625;28;20029;-70
2021/11/11 17:59:56;;;;;;;28.83;21.75;;;;;;;;;;5088367;28;20026;-69
2021/11/11 18:02:27;;;;;;;30.65;22.35;;;;;;;;;;5091698;28;20035;-70
2021/11/11 18:04:57;;;;;;;34.10;24.83;;;;;;;;;;5093108;28;20017;-70
2021/11/11 18:07:24;;;;;;;32.95;25.08;;;;;;;;;;5082490;28;20077;-71
2021/11/11 18:10:00;;;;;;;32.92;23.88;;;;;;;;;;5090663;28;20111;-71
2021/11/11 18:15:26;;;;;;;36.47;26.55;;;;;;;;;;5077544;28;20047;-71
2021/11/11 18:17:52;;;;;;;35.75;26.77;;;;;;;;;;5087796;28;20022;-71
2021/11/11 18:20:18;;;;;;;65.55;43.35;;;;;;;;;;5079178;28;20020;-72
2021/11/11 18:22:44;;;;;;;97.35;58.60;;;;;;;;;;5077494;28;20562;-71